createdAt,value
2019-01-21T00:00:24.104Z,1018.03
2019-01-21T00:01:24.111Z,1018.03
2019-01-21T00:02:24.122Z,1018.04
2019-01-21T00:03:24.129Z,1018.04
2019-01-21T00:04:24.139Z,1018.02
2019-01-21T00:05:24.147Z,1018.08
2019-01-21T00:06:24.156Z,1018.05
2019-01-21T00:07:24.163Z,1018.04
2019-01-21T00:08:24.178Z,1018.08
2019-01-21T00:09:24.183Z,1018.07
2019-01-21T00:10:24.189Z,1018.06
2019-01-21T00:11:24.200Z,1018.08
2019-01-21T00:12:24.208Z,1018.03
2019-01-21T00:13:24.217Z,1018.06
2019-01-21T00:14:24.224Z,1018.06
2019-01-21T00:15:24.238Z,1018.03
2019-01-21T00:16:24.246Z,1018.02
2019-01-21T00:17:24.252Z,1018.02
2019-01-21T00:18:24.261Z,1017.98
2019-01-21T00:19:24.273Z,1018.02
2019-01-21T00:20:24.278Z,1018.05
2019-01-21T00:21:24.285Z,1018.04
2019-01-21T00:22:24.295Z,1018.02
2019-01-21T00:23:24.306Z,1018.05
2019-01-21T00:24:24.315Z,1018.03
2019-01-21T00:25:24.326Z,1018.02
2019-01-21T00:26:24.332Z,1018.08
2019-01-21T00:27:24.341Z,1018.00
2019-01-21T00:28:24.351Z,1018.03
2019-01-21T00:29:24.358Z,1018.03
2019-01-21T00:30:24.367Z,1018.02
2019-01-21T00:31:24.379Z,1018.03
2019-01-21T00:32:24.385Z,1018.01
2019-01-21T00:33:24.392Z,1018.01
2019-01-21T00:34:24.403Z,1018.03
2019-01-21T00:35:24.412Z,1018.03
2019-01-21T00:36:24.419Z,1018.02
2019-01-21T00:37:24.429Z,1018.04
2019-01-21T00:38:24.440Z,1018.05
2019-01-21T00:39:24.446Z,1018.04
2019-01-21T00:40:24.456Z,1018.04
2019-01-21T00:41:24.465Z,1018.02
2019-01-21T00:42:24.475Z,1018.05
2019-01-21T00:43:24.481Z,1018.03
2019-01-21T00:44:24.492Z,1018.03
2019-01-21T00:45:24.500Z,1018.01
2019-01-21T00:46:24.508Z,1018.02
2019-01-21T00:47:29.864Z,1018.01
2019-01-21T00:48:24.526Z,1018.02
2019-01-21T00:49:24.538Z,1018.01
2019-01-21T00:50:24.545Z,1017.98
2019-01-21T00:51:24.553Z,1018.02
2019-01-21T00:52:24.562Z,1017.91
2019-01-21T00:53:24.569Z,1017.94
2019-01-21T00:54:24.580Z,1017.94
2019-01-21T00:55:24.589Z,1018.00
2019-01-21T00:56:24.596Z,1017.95
2019-01-21T00:57:24.604Z,1017.96
2019-01-21T00:58:24.613Z,1017.94
2019-01-21T00:59:24.623Z,1017.97
2019-01-21T01:00:24.635Z,1017.95
2019-01-21T01:01:24.640Z,1017.95
2019-01-21T01:02:24.652Z,1017.95
2019-01-21T01:03:24.658Z,1017.94
2019-01-21T01:04:24.670Z,1017.98
2019-01-21T01:05:24.673Z,1017.97
2019-01-21T01:06:24.684Z,1017.98
2019-01-21T01:07:24.705Z,1017.94
2019-01-21T01:08:24.781Z,1017.96
2019-01-21T01:09:24.788Z,1017.97
2019-01-21T01:10:24.787Z,1018.00
2019-01-21T01:11:24.779Z,1017.99
2019-01-21T01:12:24.819Z,1018.05
2019-01-21T01:13:24.783Z,1018.02
2019-01-21T01:14:24.779Z,1018.04
2019-01-21T01:15:24.843Z,1018.06
2019-01-21T01:16:24.841Z,1018.02
2019-01-21T01:17:24.850Z,1018.04
2019-01-21T01:18:24.839Z,1018.02
2019-01-21T01:19:24.850Z,1018.04
2019-01-21T01:20:24.850Z,1018.06
2019-01-21T01:21:24.835Z,1018.06
2019-01-21T01:22:24.835Z,1018.03
2019-01-21T01:23:24.834Z,1018.09
2019-01-21T01:24:24.845Z,1018.08
2019-01-21T01:25:24.852Z,1018.08
2019-01-21T01:26:24.859Z,1018.04
2019-01-21T01:27:24.869Z,1018.06
2019-01-21T01:28:24.877Z,1018.06
2019-01-21T01:29:24.885Z,1018.06
2019-01-21T01:30:24.895Z,1018.08
2019-01-21T01:31:24.903Z,1018.08
2019-01-21T01:32:24.916Z,1018.04
2019-01-21T01:33:24.921Z,1018.09
2019-01-21T01:34:24.930Z,1018.08
2019-01-21T01:35:24.943Z,1018.09
2019-01-21T01:36:24.948Z,1018.08
2019-01-21T01:37:24.954Z,1018.09
2019-01-21T01:38:24.965Z,1018.12
2019-01-21T01:39:24.973Z,1018.05
2019-01-21T01:40:24.982Z,1018.05
2019-01-21T01:41:24.988Z,1018.06
2019-01-21T01:42:24.997Z,1018.05
2019-01-21T01:43:25.005Z,1018.03
2019-01-21T01:44:25.017Z,1018.05
2019-01-21T01:45:25.022Z,1018.04
2019-01-21T01:46:25.032Z,1018.01
2019-01-21T01:47:25.040Z,1018.03
2019-01-21T01:48:25.050Z,1018.02
2019-01-21T01:49:25.059Z,1018.01
2019-01-21T01:50:25.065Z,1018.00
2019-01-21T01:51:25.076Z,1018.03
2019-01-21T01:52:25.085Z,1018.00
2019-01-21T01:53:25.094Z,1018.03
2019-01-21T01:54:25.107Z,1018.00
2019-01-21T01:55:25.110Z,1018.00
2019-01-21T01:56:25.121Z,1018.05
2019-01-21T01:57:25.130Z,1018.01
2019-01-21T01:58:25.135Z,1018.04
2019-01-21T01:59:25.146Z,1018.05
2019-01-21T02:00:25.155Z,1018.05
2019-01-21T02:01:25.164Z,1018.03
2019-01-21T02:02:25.169Z,1018.03
2019-01-21T02:03:25.179Z,1018.07
2019-01-21T02:04:25.192Z,1018.04
2019-01-21T02:05:25.200Z,1018.02
2019-01-21T02:06:25.206Z,1018.03
2019-01-21T02:07:25.216Z,1018.05
2019-01-21T02:08:25.224Z,1017.99
2019-01-21T02:09:25.232Z,1018.00
2019-01-21T02:10:25.239Z,1018.04
2019-01-21T02:11:25.249Z,1018.02
2019-01-21T02:12:25.258Z,1018.05
2019-01-21T02:13:25.266Z,1018.06
2019-01-21T02:14:25.276Z,1018.04
2019-01-21T02:15:25.294Z,1018.07
2019-01-21T02:16:25.294Z,1018.07
2019-01-21T02:17:25.300Z,1018.04
2019-01-21T02:18:25.310Z,1018.05
2019-01-21T02:19:25.321Z,1018.11
2019-01-21T02:20:25.326Z,1018.12
2019-01-21T02:21:25.336Z,1018.07
2019-01-21T02:22:25.345Z,1018.12
2019-01-21T02:23:25.354Z,1018.11
2019-01-21T02:24:25.362Z,1018.09
2019-01-21T02:25:25.368Z,1018.10
2019-01-21T02:26:25.380Z,1018.09
2019-01-21T02:27:25.389Z,1018.10
2019-01-21T02:28:25.396Z,1018.09
2019-01-21T02:29:25.406Z,1018.09
2019-01-21T02:30:25.419Z,1018.09
2019-01-21T02:31:25.422Z,1018.06
2019-01-21T02:32:25.433Z,1018.07
2019-01-21T02:33:25.442Z,1018.08
2019-01-21T02:34:25.450Z,1018.06
2019-01-21T02:35:25.458Z,1018.05
2019-01-21T02:36:25.468Z,1018.01
2019-01-21T02:37:25.475Z,1018.00
2019-01-21T02:38:25.483Z,1017.95
2019-01-21T02:39:25.495Z,1017.95
2019-01-21T02:40:25.504Z,1017.99
2019-01-21T02:41:25.511Z,1017.99
2019-01-21T02:42:25.518Z,1018.01
2019-01-21T02:43:25.528Z,1017.98
2019-01-21T02:44:25.537Z,1017.98
2019-01-21T02:45:25.545Z,1017.96
2019-01-21T02:46:25.554Z,1017.98
2019-01-21T02:47:25.563Z,1017.92
2019-01-21T02:48:25.570Z,1017.93
2019-01-21T02:49:25.580Z,1017.92
2019-01-21T02:50:25.586Z,1017.92
2019-01-21T02:51:25.596Z,1017.90
2019-01-21T02:52:25.604Z,1017.91
2019-01-21T02:53:25.621Z,1017.90
2019-01-21T02:54:25.629Z,1017.90
2019-01-21T02:55:25.633Z,1017.91
2019-01-21T02:56:25.641Z,1017.90
2019-01-21T02:57:25.648Z,1017.91
2019-01-21T02:58:25.657Z,1017.83
2019-01-21T02:59:25.667Z,1017.85
2019-01-21T03:00:25.674Z,1017.88
2019-01-21T03:01:25.685Z,1017.88
2019-01-21T03:02:25.691Z,1017.88
2019-01-21T03:03:25.701Z,1017.88
2019-01-21T03:04:25.709Z,1017.86
2019-01-21T03:05:25.716Z,1017.89
2019-01-21T03:06:25.726Z,1017.92
2019-01-21T03:07:25.739Z,1017.84
2019-01-21T03:08:25.743Z,1017.86
2019-01-21T03:09:25.752Z,1017.87
2019-01-21T03:10:25.761Z,1017.86
2019-01-21T03:11:25.768Z,1017.88
2019-01-21T03:12:25.778Z,1017.90
2019-01-21T03:13:25.787Z,1017.84
2019-01-21T03:14:25.790Z,1017.82
2019-01-21T03:15:25.802Z,1017.79
2019-01-21T03:16:25.810Z,1017.86
2019-01-21T03:17:25.840Z,1017.84
2019-01-21T03:18:25.828Z,1017.83
2019-01-21T03:19:25.836Z,1017.85
2019-01-21T03:20:25.848Z,1017.85
2019-01-21T03:21:25.851Z,1017.87
2019-01-21T03:22:25.863Z,1017.88
2019-01-21T03:23:25.870Z,1017.89
2019-01-21T03:24:25.881Z,1017.87
2019-01-21T03:25:25.891Z,1017.91
2019-01-21T03:26:25.898Z,1017.88
2019-01-21T03:27:25.906Z,1017.88
2019-01-21T03:28:25.915Z,1017.89
2019-01-21T03:29:25.921Z,1017.88
2019-01-21T03:30:25.932Z,1017.89
2019-01-21T03:31:25.942Z,1017.85
2019-01-21T03:32:25.952Z,1017.91
2019-01-21T03:33:27.009Z,1017.88
2019-01-21T03:34:25.969Z,1017.88
2019-01-21T03:35:25.986Z,1017.91
2019-01-21T03:36:25.983Z,1017.92
2019-01-21T03:37:25.989Z,1017.89
2019-01-21T03:38:25.998Z,1017.91
2019-01-21T03:39:26.006Z,1017.89
2019-01-21T03:40:26.015Z,1017.86
2019-01-21T03:41:26.025Z,1017.87
2019-01-21T03:42:26.032Z,1017.90
2019-01-21T03:43:26.040Z,1017.87
2019-01-21T03:44:26.051Z,1017.92
2019-01-21T03:45:26.058Z,1017.90
2019-01-21T03:46:26.065Z,1017.83
2019-01-21T03:47:26.074Z,1017.86
2019-01-21T03:48:26.087Z,1017.88
2019-01-21T03:49:26.091Z,1017.89
2019-01-21T03:50:26.105Z,1017.90
2019-01-21T03:51:26.110Z,1017.89
2019-01-21T03:52:26.118Z,1017.92
2019-01-21T03:53:26.124Z,1017.91
2019-01-21T03:54:26.134Z,1017.95
2019-01-21T03:55:26.144Z,1017.93
2019-01-21T03:56:26.154Z,1017.93
2019-01-21T03:57:26.159Z,1017.97
2019-01-21T03:58:26.169Z,1017.86
2019-01-21T03:59:26.184Z,1017.90
2019-01-21T04:00:26.187Z,1017.92
2019-01-21T04:01:26.191Z,1017.87
2019-01-21T04:02:26.207Z,1017.86
2019-01-21T04:03:26.212Z,1017.83
2019-01-21T04:04:26.220Z,1017.80
2019-01-21T04:05:26.239Z,1017.84
2019-01-21T04:06:26.238Z,1017.79
2019-01-21T04:07:26.240Z,1017.81
2019-01-21T04:08:26.251Z,1017.85
2019-01-21T04:09:26.264Z,1017.82
2019-01-21T04:10:26.269Z,1017.87
2019-01-21T04:11:26.277Z,1017.85
2019-01-21T04:12:26.286Z,1017.84
2019-01-21T04:13:26.292Z,1017.84
2019-01-21T04:14:26.305Z,1017.84
2019-01-21T04:15:26.315Z,1017.83
2019-01-21T04:16:26.319Z,1017.83
2019-01-21T04:17:26.327Z,1017.83
2019-01-21T04:18:26.337Z,1017.81
2019-01-21T04:19:26.343Z,1017.81
2019-01-21T04:20:26.352Z,1017.76
2019-01-21T04:21:26.362Z,1017.76
2019-01-21T04:22:26.370Z,1017.69
2019-01-21T04:23:26.378Z,1017.72
2019-01-21T04:24:26.388Z,1017.71
2019-01-21T04:25:26.396Z,1017.69
2019-01-21T04:26:26.402Z,1017.67
2019-01-21T04:27:26.413Z,1017.69
2019-01-21T04:28:26.420Z,1017.69
2019-01-21T04:29:26.426Z,1017.68
2019-01-21T04:30:26.443Z,1017.64
2019-01-21T04:31:26.580Z,1017.63
2019-01-21T04:32:26.524Z,1017.62
2019-01-21T04:33:26.529Z,1017.63
2019-01-21T04:34:26.525Z,1017.61
2019-01-21T04:35:26.520Z,1017.57
2019-01-21T04:36:26.517Z,1017.57
2019-01-21T04:37:26.575Z,1017.59
2019-01-21T04:38:26.585Z,1017.55
2019-01-21T04:39:26.583Z,1017.53
2019-01-21T04:40:26.587Z,1017.53
2019-01-21T04:41:26.579Z,1017.59
2019-01-21T04:42:26.585Z,1017.59
2019-01-21T04:43:26.571Z,1017.60
2019-01-21T04:44:26.579Z,1017.56
2019-01-21T04:45:26.581Z,1017.55
2019-01-21T04:46:26.571Z,1017.54
2019-01-21T04:47:26.583Z,1017.58
2019-01-21T04:48:33.009Z,1017.55
2019-01-21T04:49:26.596Z,1017.54
2019-01-21T04:50:26.601Z,1017.55
2019-01-21T04:51:26.612Z,1017.54
2019-01-21T04:52:26.617Z,1017.50
2019-01-21T04:53:26.626Z,1017.51
2019-01-21T04:54:26.639Z,1017.54
2019-01-21T04:55:26.644Z,1017.50
2019-01-21T04:56:26.656Z,1017.52
2019-01-21T04:57:26.660Z,1017.54
2019-01-21T04:58:26.670Z,1017.53
2019-01-21T04:59:26.680Z,1017.54
2019-01-21T05:00:26.687Z,1017.49
2019-01-21T05:01:26.692Z,1017.49
2019-01-21T05:02:26.702Z,1017.48
2019-01-21T05:03:26.710Z,1017.50
2019-01-21T05:04:26.722Z,1017.51
2019-01-21T05:05:26.729Z,1017.51
2019-01-21T05:06:26.735Z,1017.53
2019-01-21T05:07:26.746Z,1017.52
2019-01-21T05:08:26.752Z,1017.44
2019-01-21T05:09:26.760Z,1017.49
2019-01-21T05:10:26.767Z,1017.48
2019-01-21T05:11:26.780Z,1017.48
2019-01-21T05:12:26.787Z,1017.47
2019-01-21T05:13:26.794Z,1017.48
2019-01-21T05:14:26.800Z,1017.53
2019-01-21T05:15:26.813Z,1017.49
2019-01-21T05:16:26.819Z,1017.49
2019-01-21T05:17:26.829Z,1017.52
2019-01-21T05:18:26.834Z,1017.49
2019-01-21T05:19:26.843Z,1017.47
2019-01-21T05:20:26.853Z,1017.50
2019-01-21T05:21:26.861Z,1017.48
2019-01-21T05:22:26.866Z,1017.43
2019-01-21T05:23:26.879Z,1017.44
2019-01-21T05:24:26.886Z,1017.50
2019-01-21T05:25:26.897Z,1017.46
2019-01-21T05:26:26.901Z,1017.46
2019-01-21T05:27:26.911Z,1017.48
2019-01-21T05:28:26.918Z,1017.45
2019-01-21T05:29:26.926Z,1017.50
2019-01-21T05:30:26.935Z,1017.47
2019-01-21T05:31:26.943Z,1017.49
2019-01-21T05:32:26.951Z,1017.48
2019-01-21T05:33:26.958Z,1017.47
2019-01-21T05:34:26.967Z,1017.47
2019-01-21T05:35:26.978Z,1017.49
2019-01-21T05:36:26.985Z,1017.52
2019-01-21T05:37:26.994Z,1017.45
2019-01-21T05:38:27.002Z,1017.47
2019-01-21T05:39:27.011Z,1017.43
2019-01-21T05:40:27.032Z,1017.48
2019-01-21T05:41:27.028Z,1017.43
2019-01-21T05:42:27.037Z,1017.46
2019-01-21T05:43:27.043Z,1017.44
2019-01-21T05:44:27.052Z,1017.46
2019-01-21T05:45:27.059Z,1017.41
2019-01-21T05:46:27.066Z,1017.44
2019-01-21T05:47:27.074Z,1017.43
2019-01-21T05:48:27.083Z,1017.43
2019-01-21T05:49:28.408Z,1017.42
2019-01-21T05:50:27.099Z,1017.44
2019-01-21T05:51:27.114Z,1017.45
2019-01-21T05:52:27.115Z,1017.47
2019-01-21T05:53:27.128Z,1017.45
2019-01-21T05:54:27.161Z,1017.50
2019-01-21T05:55:27.142Z,1017.50
2019-01-21T05:56:27.156Z,1017.45
2019-01-21T05:57:27.156Z,1017.46
2019-01-21T05:58:27.163Z,1017.47
2019-01-21T05:59:27.173Z,1017.50
2019-01-21T06:00:27.180Z,1017.50
2019-01-21T06:01:27.188Z,1017.49
2019-01-21T06:02:27.197Z,1017.49
2019-01-21T06:03:27.218Z,1017.50
2019-01-21T06:04:27.213Z,1017.51
2019-01-21T06:05:27.222Z,1017.44
2019-01-21T06:06:27.231Z,1017.51
2019-01-21T06:07:28.422Z,1017.50
2019-01-21T06:08:27.252Z,1017.47
2019-01-21T06:09:27.254Z,1017.51
2019-01-21T06:10:27.263Z,1017.47
2019-01-21T06:11:27.271Z,1017.45
2019-01-21T06:12:27.280Z,1017.46
2019-01-21T06:13:27.287Z,1017.45
2019-01-21T06:14:27.297Z,1017.46
2019-01-21T06:15:27.307Z,1017.50
2019-01-21T06:16:27.312Z,1017.52
2019-01-21T06:17:27.330Z,1017.51
2019-01-21T06:18:27.328Z,1017.49
2019-01-21T06:19:27.338Z,1017.47
2019-01-21T06:20:27.345Z,1017.52
2019-01-21T06:21:27.354Z,1017.53
2019-01-21T06:22:27.364Z,1017.52
2019-01-21T06:23:27.371Z,1017.51
2019-01-21T06:24:27.384Z,1017.56
2019-01-21T06:25:27.387Z,1017.54
2019-01-21T06:26:27.395Z,1017.55
2019-01-21T06:27:27.404Z,1017.53
2019-01-21T06:28:27.413Z,1017.55
2019-01-21T06:29:27.419Z,1017.55
2019-01-21T06:30:27.430Z,1017.59
2019-01-21T06:31:27.438Z,1017.60
2019-01-21T06:32:27.446Z,1017.64
2019-01-21T06:33:27.454Z,1017.67
2019-01-21T06:34:27.464Z,1017.65
2019-01-21T06:35:27.472Z,1017.67
2019-01-21T06:36:27.480Z,1017.65
2019-01-21T06:37:27.487Z,1017.69
2019-01-21T06:38:27.494Z,1017.65
2019-01-21T06:39:27.504Z,1017.64
2019-01-21T06:40:27.513Z,1017.63
2019-01-21T06:41:27.520Z,1017.60
2019-01-21T06:42:27.529Z,1017.65
2019-01-21T06:43:27.537Z,1017.67
2019-01-21T06:44:27.546Z,1017.72
2019-01-21T06:45:27.554Z,1017.71
2019-01-21T06:46:27.562Z,1017.71
2019-01-21T06:47:27.569Z,1017.72
2019-01-21T06:48:27.579Z,1017.76
2019-01-21T06:49:27.583Z,1017.73
2019-01-21T06:50:27.593Z,1017.72
2019-01-21T06:51:27.603Z,1017.71
2019-01-21T06:52:27.610Z,1017.71
2019-01-21T06:53:27.619Z,1017.68
2019-01-21T06:54:27.626Z,1017.67
2019-01-21T06:55:27.637Z,1017.67
2019-01-21T06:56:27.642Z,1017.65
2019-01-21T06:57:27.652Z,1017.66
2019-01-21T06:58:27.661Z,1017.64
2019-01-21T06:59:27.670Z,1017.68
2019-01-21T07:00:27.678Z,1017.67
2019-01-21T07:01:27.684Z,1017.68
2019-01-21T07:03:27.701Z,1017.71
2019-01-21T07:04:27.712Z,1017.76
2019-01-21T07:05:27.714Z,1017.75
2019-01-21T07:06:27.725Z,1017.74
2019-01-21T07:07:27.733Z,1017.76
2019-01-21T07:08:27.742Z,1017.77
2019-01-21T07:09:27.747Z,1017.80
2019-01-21T07:10:27.757Z,1017.78
2019-01-21T07:11:27.766Z,1017.79
2019-01-21T07:12:27.774Z,1017.77
2019-01-21T07:13:27.780Z,1017.78
2019-01-21T07:14:27.790Z,1017.72
2019-01-21T07:15:27.800Z,1017.73
2019-01-21T07:16:27.807Z,1017.75
2019-01-21T07:17:27.814Z,1017.74
2019-01-21T07:18:27.822Z,1017.78
2019-01-21T07:19:27.832Z,1017.78
2019-01-21T07:20:27.838Z,1017.74
2019-01-21T07:21:27.845Z,1017.71
2019-01-21T07:22:27.860Z,1017.72
2019-01-21T07:23:27.865Z,1017.70
2019-01-21T07:24:27.875Z,1017.73
2019-01-21T07:25:27.881Z,1017.79
2019-01-21T07:26:27.890Z,1017.81
2019-01-21T07:27:27.896Z,1017.82
2019-01-21T07:28:27.905Z,1017.81
2019-01-21T07:29:27.912Z,1017.82
2019-01-21T07:30:27.921Z,1017.81
2019-01-21T07:31:27.928Z,1017.82
2019-01-21T07:32:27.937Z,1017.85
2019-01-21T07:33:27.944Z,1017.83
2019-01-21T07:34:27.952Z,1017.77
2019-01-21T07:35:27.961Z,1017.72
2019-01-21T07:36:27.970Z,1017.72
2019-01-21T07:37:27.983Z,1017.77
2019-01-21T07:38:27.985Z,1017.76
2019-01-21T07:39:27.995Z,1017.83
2019-01-21T07:40:28.002Z,1017.84
2019-01-21T07:41:28.011Z,1017.82
2019-01-21T07:42:28.018Z,1017.80
2019-01-21T07:43:28.029Z,1017.79
2019-01-21T07:44:28.035Z,1017.77
2019-01-21T07:45:28.045Z,1017.78
2019-01-21T07:46:28.050Z,1017.72
2019-01-21T07:47:28.059Z,1017.73
2019-01-21T07:48:28.069Z,1017.73
2019-01-21T07:49:28.076Z,1017.74
2019-01-21T07:50:28.086Z,1017.71
2019-01-21T07:51:28.092Z,1017.71
2019-01-21T07:52:28.100Z,1017.73
2019-01-21T07:53:28.108Z,1017.75
2019-01-21T07:54:28.115Z,1017.77
2019-01-21T07:55:28.130Z,1017.80
2019-01-21T07:56:28.137Z,1017.78
2019-01-21T07:57:28.140Z,1017.80
2019-01-21T07:58:28.151Z,1017.78
2019-01-21T07:59:28.158Z,1017.76
2019-01-21T08:00:28.188Z,1017.75
2019-01-21T08:01:28.256Z,1017.78
2019-01-21T08:02:28.253Z,1017.73
2019-01-21T08:03:28.263Z,1017.78
2019-01-21T08:04:28.276Z,1017.78
2019-01-21T08:05:28.244Z,1017.79
2019-01-21T08:06:28.251Z,1017.79
2019-01-21T08:07:28.297Z,1017.79
2019-01-21T08:08:28.319Z,1017.78
2019-01-21T08:09:28.311Z,1017.83
2019-01-21T08:10:28.326Z,1017.82
2019-01-21T08:11:28.313Z,1017.84
2019-01-21T08:12:28.309Z,1017.81
2019-01-21T08:13:28.313Z,1017.83
2019-01-21T08:14:28.304Z,1017.83
2019-01-21T08:15:28.320Z,1017.82
2019-01-21T08:16:28.299Z,1017.80
2019-01-21T08:17:28.308Z,1017.80
2019-01-21T08:18:28.321Z,1017.84
2019-01-21T08:19:28.328Z,1017.81
2019-01-21T08:20:28.345Z,1017.81
2019-01-21T08:21:28.339Z,1017.81
2019-01-21T08:22:28.352Z,1017.81
2019-01-21T08:23:30.316Z,1017.82
2019-01-21T08:24:28.370Z,1017.80
2019-01-21T08:25:28.378Z,1017.82
2019-01-21T08:26:28.385Z,1017.85
2019-01-21T08:27:28.394Z,1017.87
2019-01-21T08:28:28.408Z,1017.84
2019-01-21T08:29:28.411Z,1017.89
2019-01-21T08:30:28.422Z,1017.87
2019-01-21T08:31:28.429Z,1017.83
2019-01-21T08:32:28.440Z,1017.88
2019-01-21T08:33:28.444Z,1017.88
2019-01-21T08:34:28.454Z,1017.90
2019-01-21T08:35:28.464Z,1017.85
2019-01-21T08:36:28.471Z,1017.88
2019-01-21T08:37:28.479Z,1017.86
2019-01-21T08:38:28.488Z,1017.91
2019-01-21T08:39:28.506Z,1017.91
2019-01-21T08:40:28.507Z,1017.86
2019-01-21T08:41:28.515Z,1017.90
2019-01-21T08:42:28.525Z,1017.91
2019-01-21T08:43:28.535Z,1017.86
2019-01-21T08:44:28.543Z,1017.87
2019-01-21T08:45:28.549Z,1017.85
2019-01-21T08:46:28.562Z,1017.84
2019-01-21T08:47:28.571Z,1017.85
2019-01-21T08:48:28.577Z,1017.79
2019-01-21T08:49:30.777Z,1017.88
2019-01-21T08:50:28.599Z,1017.86
2019-01-21T08:51:28.606Z,1017.87
2019-01-21T08:52:28.614Z,1017.91
2019-01-21T08:53:28.627Z,1017.93
2019-01-21T08:54:28.630Z,1017.92
2019-01-21T08:55:28.641Z,1017.92
2019-01-21T08:56:28.651Z,1017.96
2019-01-21T08:57:28.659Z,1018.00
2019-01-21T08:58:28.665Z,1017.99
2019-01-21T08:59:28.674Z,1017.99
2019-01-21T09:00:28.686Z,1018.01
2019-01-21T09:01:28.693Z,1017.99
2019-01-21T09:02:28.704Z,1017.98
2019-01-21T09:03:28.713Z,1018.00
2019-01-21T09:04:28.723Z,1018.04
2019-01-21T09:05:28.730Z,1018.01
2019-01-21T09:06:28.739Z,1017.97
2019-01-21T09:07:28.748Z,1018.02
2019-01-21T09:08:28.757Z,1018.01
2019-01-21T09:09:28.766Z,1018.02
2019-01-21T09:10:28.775Z,1018.04
2019-01-21T09:11:28.786Z,1018.04
2019-01-21T09:12:28.796Z,1018.06
2019-01-21T09:13:28.802Z,1018.08
2019-01-21T09:14:28.816Z,1018.01
2019-01-21T09:15:28.821Z,1018.04
2019-01-21T09:16:28.831Z,1018.05
2019-01-21T09:17:28.841Z,1018.10
2019-01-21T09:18:28.851Z,1018.07
2019-01-21T09:19:28.860Z,1018.04
2019-01-21T09:20:28.873Z,1018.01
2019-01-21T09:21:28.878Z,1018.00
2019-01-21T09:22:28.890Z,1018.04
2019-01-21T09:23:28.895Z,1018.04
2019-01-21T09:24:28.910Z,1018.06
2019-01-21T09:25:28.914Z,1018.10
2019-01-21T09:26:28.924Z,1018.09
2019-01-21T09:27:28.935Z,1018.10
2019-01-21T09:28:28.946Z,1018.14
2019-01-21T09:29:28.953Z,1018.12
2019-01-21T09:30:28.960Z,1018.08
2019-01-21T09:31:28.969Z,1018.11
2019-01-21T09:32:28.980Z,1018.10
2019-01-21T09:33:28.990Z,1018.11
2019-01-21T09:34:29.000Z,1018.07
2019-01-21T09:35:29.008Z,1018.05
2019-01-21T09:36:29.019Z,1018.00
2019-01-21T09:37:29.026Z,1018.08
2019-01-21T09:38:29.036Z,1018.08
2019-01-21T09:39:29.046Z,1018.04
2019-01-21T09:40:29.056Z,1018.02
2019-01-21T09:41:29.063Z,1018.05
2019-01-21T09:42:29.075Z,1018.05
2019-01-21T09:43:29.082Z,1018.03
2019-01-21T09:44:29.092Z,1018.02
2019-01-21T09:45:29.102Z,1018.05
2019-01-21T09:46:29.110Z,1018.03
2019-01-21T09:47:29.121Z,1018.01
2019-01-21T09:48:29.131Z,1018.03
2019-01-21T09:49:29.139Z,1018.04
2019-01-21T09:50:29.150Z,1018.03
2019-01-21T09:51:29.158Z,1018.03
2019-01-21T09:52:29.173Z,1018.02
2019-01-21T09:53:29.178Z,1018.05
2019-01-21T09:54:29.185Z,1018.04
2019-01-21T09:55:29.196Z,1017.98
2019-01-21T09:56:29.205Z,1018.00
2019-01-21T09:57:29.214Z,1017.96
2019-01-21T09:58:29.224Z,1017.98
2019-01-21T09:59:29.235Z,1017.99
2019-01-21T10:00:29.245Z,1017.98
2019-01-21T10:01:29.253Z,1018.03
2019-01-21T10:02:29.262Z,1018.02
2019-01-21T10:03:29.277Z,1018.05
2019-01-21T10:04:29.281Z,1018.08
2019-01-21T10:05:29.292Z,1018.04
2019-01-21T10:06:29.301Z,1018.04
2019-01-21T10:07:29.312Z,1017.97
2019-01-21T10:08:29.320Z,1017.98
2019-01-21T10:09:29.329Z,1017.98
2019-01-21T10:10:29.338Z,1017.92
2019-01-21T10:11:29.348Z,1017.93
2019-01-21T10:12:29.362Z,1017.89
2019-01-21T10:13:29.368Z,1017.88
2019-01-21T10:14:29.376Z,1017.83
2019-01-21T10:15:30.083Z,1017.86
2019-01-21T10:16:29.400Z,1017.83
2019-01-21T10:17:29.406Z,1017.81
2019-01-21T10:18:29.419Z,1017.79
2019-01-21T10:19:29.424Z,1017.72
2019-01-21T10:20:29.432Z,1017.74
2019-01-21T10:21:29.444Z,1017.76
2019-01-21T10:22:29.451Z,1017.73
2019-01-21T10:23:29.462Z,1017.72
2019-01-21T10:24:29.471Z,1017.70
2019-01-21T10:25:29.482Z,1017.69
2019-01-21T10:26:29.490Z,1017.69
2019-01-21T10:27:29.501Z,1017.67
2019-01-21T10:28:29.509Z,1017.64
2019-01-21T10:29:29.517Z,1017.64
2019-01-21T10:30:29.529Z,1017.65
2019-01-21T10:31:29.538Z,1017.61
2019-01-21T10:32:29.549Z,1017.64
2019-01-21T10:33:29.556Z,1017.64
2019-01-21T10:34:29.565Z,1017.64
2019-01-21T10:35:29.576Z,1017.63
2019-01-21T10:36:29.586Z,1017.65
2019-01-21T10:37:29.597Z,1017.59
2019-01-21T10:38:29.606Z,1017.51
2019-01-21T10:39:29.616Z,1017.45
2019-01-21T10:40:29.628Z,1017.45
2019-01-21T10:41:29.636Z,1017.42
2019-01-21T10:42:29.645Z,1017.45
2019-01-21T10:43:29.655Z,1017.46
2019-01-21T10:44:29.665Z,1017.44
2019-01-21T10:45:29.675Z,1017.46
2019-01-21T10:46:29.685Z,1017.44
2019-01-21T10:47:29.695Z,1017.42
2019-01-21T10:48:29.706Z,1017.44
2019-01-21T10:49:29.715Z,1017.41
2019-01-21T10:50:29.725Z,1017.33
2019-01-21T10:51:29.735Z,1017.32
2019-01-21T10:52:29.746Z,1017.30
2019-01-21T10:53:29.754Z,1017.30
2019-01-21T10:54:29.765Z,1017.28
2019-01-21T10:55:29.773Z,1017.34
2019-01-21T10:56:29.786Z,1017.30
2019-01-21T10:57:29.794Z,1017.28
2019-01-21T10:58:29.805Z,1017.28
2019-01-21T10:59:29.814Z,1017.22
2019-01-21T11:00:29.827Z,1017.21
2019-01-21T11:01:29.838Z,1017.17
2019-01-21T11:02:29.844Z,1017.10
2019-01-21T11:03:29.856Z,1017.05
2019-01-21T11:04:29.865Z,1017.07
2019-01-21T11:05:29.875Z,1017.07
2019-01-21T11:06:29.886Z,1017.08
2019-01-21T11:07:29.896Z,1017.06
2019-01-21T11:08:29.908Z,1017.05
2019-01-21T11:09:29.917Z,1017.04
2019-01-21T11:10:30.001Z,1017.07
2019-01-21T11:11:30.011Z,1017.04
2019-01-21T11:12:30.015Z,1017.04
2019-01-21T11:13:30.009Z,1017.10
2019-01-21T11:14:29.999Z,1017.04
2019-01-21T11:15:30.002Z,1017.06
2019-01-21T11:16:30.072Z,1017.02
2019-01-21T11:17:30.078Z,1017.02
2019-01-21T11:18:30.061Z,1016.95
2019-01-21T11:19:30.062Z,1016.91
2019-01-21T11:20:30.064Z,1016.94
2019-01-21T11:21:30.063Z,1016.83
2019-01-21T11:22:30.063Z,1016.87
2019-01-21T11:23:30.062Z,1016.90
2019-01-21T11:24:30.089Z,1016.91
2019-01-21T11:25:30.079Z,1016.90
2019-01-21T11:26:30.087Z,1016.87
2019-01-21T11:27:30.101Z,1016.87
2019-01-21T11:28:30.111Z,1016.82
2019-01-21T11:29:30.119Z,1016.79
2019-01-21T11:30:30.130Z,1016.74
2019-01-21T11:31:30.139Z,1016.73
2019-01-21T11:32:30.151Z,1016.72
2019-01-21T11:33:30.163Z,1016.67
2019-01-21T11:34:30.169Z,1016.71
2019-01-21T11:35:30.181Z,1016.71
2019-01-21T11:36:30.192Z,1016.72
2019-01-21T11:37:30.202Z,1016.75
2019-01-21T11:38:30.212Z,1016.72
2019-01-21T11:39:30.221Z,1016.81
2019-01-21T11:40:30.230Z,1016.78
2019-01-21T11:41:30.241Z,1016.73
2019-01-21T11:42:30.250Z,1016.76
2019-01-21T11:43:30.263Z,1016.71
2019-01-21T11:44:30.273Z,1016.72
2019-01-21T11:45:30.280Z,1016.78
2019-01-21T11:46:30.301Z,1016.74
2019-01-21T11:47:30.302Z,1016.74
2019-01-21T11:48:30.315Z,1016.80
2019-01-21T11:49:30.323Z,1016.81
2019-01-21T11:50:31.518Z,1016.80
2019-01-21T11:51:30.347Z,1016.86
2019-01-21T11:52:30.359Z,1016.85
2019-01-21T11:53:30.364Z,1016.87
2019-01-21T11:54:30.388Z,1016.83
2019-01-21T11:55:30.387Z,1016.86
2019-01-21T11:56:30.398Z,1016.77
2019-01-21T11:57:30.408Z,1016.80
2019-01-21T11:58:30.422Z,1016.78
2019-01-21T11:59:30.433Z,1016.83
2019-01-21T12:00:30.438Z,1016.75
2019-01-21T12:01:30.448Z,1016.74
2019-01-21T12:02:30.460Z,1016.76
2019-01-21T12:03:30.471Z,1016.73
2019-01-21T12:04:30.482Z,1016.75
2019-01-21T12:05:30.492Z,1016.76
2019-01-21T12:06:30.503Z,1016.73